Terminal Aerodrome Forecast
Issued by NWS Wilmington, OH

Current Version | Previous Version | Graphics & Text | Print | Product List | Glossary On
Versions: 1 2 3 4 5 6 7 8 9 10 11 12 13 14 15 16 17 18 19 20 21 22 23 24 25 26
000
FTUS41 KILN 182300
TAFCVG
TAF
KCVG 182320Z 1900/2006 32010KT P6SM SCT015 OVC025
     FM190100 33008KT P6SM OVC025
     FM190800 34005KT P6SM SCT025
     FM191500 VRB03KT P6SM FEW040
     FM192200 22004KT P6SM BKN200=

USA.gov is the U.S. government's official web portal to all federal, state and local government web resources and services.